sensor_id;sensor_type;location;lat;lon;timestamp;pressure;altitude;pressure_sealevel;temperature;humidity
68077;BME280;54866;53.458;14.540;2023-03-20T00:02:27;100607.71;;;9.01;100.00
68077;BME280;54866;53.458;14.540;2023-03-20T00:04:56;100604.31;;;9.00;100.00
68077;BME280;54866;53.458;14.540;2023-03-20T00:07:26;100602.37;;;8.98;100.00
68077;BME280;54866;53.458;14.540;2023-03-20T00:09:56;100604.59;;;8.96;100.00
68077;BME280;54866;53.458;14.540;2023-03-20T00:12:25;100602.64;;;8.94;100.00
68077;BME280;54866;53.458;14.540;2023-03-20T00:14:55;100601.70;;;8.90;100.00
68077;BME280;54866;53.458;14.540;2023-03-20T00:17:25;100606.30;;;8.90;100.00
68077;BME280;54866;53.458;14.540;2023-03-20T00:19:54;100608.27;;;8.87;100.00
68077;BME280;54866;53.458;14.540;2023-03-20T00:22:24;100609.80;;;8.85;100.00
68077;BME280;54866;53.458;14.540;2023-03-20T00:24:56;100608.58;;;8.83;100.00
68077;BME280;54866;53.458;14.540;2023-03-20T00:27:26;100607.02;;;8.80;100.00
68077;BME280;54866;53.458;14.540;2023-03-20T00:29:55;100604.86;;;8.78;100.00
68077;BME280;54866;53.458;14.540;2023-03-20T00:32:25;100603.25;;;8.76;100.00
68077;BME280;54866;53.458;14.540;2023-03-20T00:34:54;100596.64;;;8.75;100.00
68077;BME280;54866;53.458;14.540;2023-03-20T00:37:24;100597.36;;;8.75;100.00
68077;BME280;54866;53.458;14.540;2023-03-20T00:39:55;100600.23;;;8.74;100.00
68077;BME280;54866;53.458;14.540;2023-03-20T00:42:24;100600.06;;;8.74;100.00
68077;BME280;54866;53.458;14.540;2023-03-20T00:44:56;100599.80;;;8.73;100.00
68077;BME280;54866;53.458;14.540;2023-03-20T00:47:27;100605.73;;;8.71;100.00
68077;BME280;54866;53.458;14.540;2023-03-20T00:49:57;100605.16;;;8.69;100.00
68077;BME280;54866;53.458;14.540;2023-03-20T00:52:27;100604.45;;;8.66;100.00
68077;BME280;54866;53.458;14.540;2023-03-20T00:54:57;100604.66;;;8.66;100.00
68077;BME280;54866;53.458;14.540;2023-03-20T00:57:28;100602.52;;;8.67;100.00
68077;BME280;54866;53.458;14.540;2023-03-20T01:00:02;100603.67;;;8.68;100.00
68077;BME280;54866;53.458;14.540;2023-03-20T01:02:33;100602.81;;;8.68;100.00
68077;BME280;54866;53.458;14.540;2023-03-20T01:05:03;100600.41;;;8.67;100.00
68077;BME280;54866;53.458;14.540;2023-03-20T01:07:33;100599.59;;;8.66;100.00
68077;BME280;54866;53.458;14.540;2023-03-20T01:10:04;100599.91;;;8.64;100.00
68077;BME280;54866;53.458;14.540;2023-03-20T01:12:34;100602.66;;;8.62;100.00
68077;BME280;54866;53.458;14.540;2023-03-20T01:15:06;100601.21;;;8.61;100.00
68077;BME280;54866;53.458;14.540;2023-03-20T01:17:39;100600.72;;;8.58;100.00
68077;BME280;54866;53.458;14.540;2023-03-20T01:20:15;100603.53;;;8.55;100.00
68077;BME280;54866;53.458;14.540;2023-03-20T01:22:45;100602.77;;;8.51;100.00
68077;BME280;54866;53.458;14.540;2023-03-20T01:25:16;100602.69;;;8.47;100.00
68077;BME280;54866;53.458;14.540;2023-03-20T01:27:48;100602.00;;;8.44;100.00
68077;BME280;54866;53.458;14.540;2023-03-20T01:30:22;100604.16;;;8.41;100.00
68077;BME280;54866;53.458;14.540;2023-03-20T01:32:52;100602.39;;;8.37;100.00
68077;BME280;54866;53.458;14.540;2023-03-20T01:35:24;100607.61;;;8.32;100.00
68077;BME280;54866;53.458;14.540;2023-03-20T01:37:55;100612.58;;;8.26;100.00
68077;BME280;54866;53.458;14.540;2023-03-20T01:40:34;100612.20;;;8.21;100.00
68077;BME280;54866;53.458;14.540;2023-03-20T01:43:13;100617.28;;;8.17;100.00
68077;BME280;54866;53.458;14.540;2023-03-20T01:45:51;100615.25;;;8.12;100.00
68077;BME280;54866;53.458;14.540;2023-03-20T01:48:24;100614.08;;;8.09;100.00
68077;BME280;54866;53.458;14.540;2023-03-20T01:50:55;100612.69;;;8.06;100.00
68077;BME280;54866;53.458;14.540;2023-03-20T01:53:26;100613.16;;;8.03;100.00
68077;BME280;54866;53.458;14.540;2023-03-20T01:55:58;100609.85;;;8.00;100.00
68077;BME280;54866;53.458;14.540;2023-03-20T01:58:31;100611.48;;;7.96;100.00
68077;BME280;54866;53.458;14.540;2023-03-20T02:01:05;100612.29;;;7.92;100.00
68077;BME280;54866;53.458;14.540;2023-03-20T02:03:36;100611.22;;;7.87;100.00
68077;BME280;54866;53.458;14.540;2023-03-20T02:06:07;100611.68;;;7.83;100.00
68077;BME280;54866;53.458;14.540;2023-03-20T02:08:41;100609.27;;;7.80;100.00
68077;BME280;54866;53.458;14.540;2023-03-20T02:11:13;100614.59;;;7.74;100.00
68077;BME280;54866;53.458;14.540;2023-03-20T02:13:44;100614.61;;;7.68;100.00
68077;BME280;54866;53.458;14.540;2023-03-20T02:16:15;100612.98;;;7.62;100.00
68077;BME280;54866;53.458;14.540;2023-03-20T02:18:48;100614.37;;;7.51;100.00
68077;BME280;54866;53.458;14.540;2023-03-20T02:21:49;100609.73;;;7.42;100.00
68077;BME280;54866;53.458;14.540;2023-03-20T02:27:58;100610.07;;;7.16;100.00
68077;BME280;54866;53.458;14.540;2023-03-20T02:30:42;100614.39;;;7.08;100.00
68077;BME280;54866;53.458;14.540;2023-03-20T02:36:41;100613.74;;;6.94;100.00
68077;BME280;54866;53.458;14.540;2023-03-20T02:39:39;100608.09;;;6.87;100.00
68077;BME280;54866;53.458;14.540;2023-03-20T02:42:18;100607.58;;;6.81;100.00
68077;BME280;54866;53.458;14.540;2023-03-20T02:44:55;100608.36;;;6.77;100.00
68077;BME280;54866;53.458;14.540;2023-03-20T02:47:31;100609.64;;;6.73;100.00
68077;BME280;54866;53.458;14.540;2023-03-20T02:50:13;100606.88;;;6.67;100.00
68077;BME280;54866;53.458;14.540;2023-03-20T02:52:47;100610.50;;;6.63;100.00
68077;BME280;54866;53.458;14.540;2023-03-20T02:55:23;100607.17;;;6.57;100.00
68077;BME280;54866;53.458;14.540;2023-03-20T02:57:59;100604.65;;;6.52;100.00
68077;BME280;54866;53.458;14.540;2023-03-20T03:00:33;100605.44;;;6.49;100.00
68077;BME280;54866;53.458;14.540;2023-03-20T03:03:10;100602.09;;;6.43;100.00
68077;BME280;54866;53.458;14.540;2023-03-20T03:05:46;100601.23;;;6.40;100.00
68077;BME280;54866;53.458;14.540;2023-03-20T03:08:19;100600.21;;;6.37;100.00
68077;BME280;54866;53.458;14.540;2023-03-20T03:10:52;100594.80;;;6.34;100.00
68077;BME280;54866;53.458;14.540;2023-03-20T03:13:27;100597.08;;;6.31;100.00
68077;BME280;54866;53.458;14.540;2023-03-20T03:16:02;100603.15;;;6.29;100.00
68077;BME280;54866;53.458;14.540;2023-03-20T03:18:36;100598.36;;;6.27;100.00
68077;BME280;54866;53.458;14.540;2023-03-20T03:21:08;100601.44;;;6.26;100.00
68077;BME280;54866;53.458;14.540;2023-03-20T03:23:44;100599.48;;;6.26;100.00
68077;BME280;54866;53.458;14.540;2023-03-20T03:26:18;100603.17;;;6.29;100.00
68077;BME280;54866;53.458;14.540;2023-03-20T03:28:51;100598.59;;;6.32;100.00
68077;BME280;54866;53.458;14.540;2023-03-20T03:31:24;100596.19;;;6.34;100.00
68077;BME280;54866;53.458;14.540;2023-03-20T03:33:56;100602.81;;;6.38;100.00
68077;BME280;54866;53.458;14.540;2023-03-20T03:36:36;100598.33;;;6.39;100.00
68077;BME280;54866;53.458;14.540;2023-03-20T03:39:15;100598.66;;;6.45;100.00
68077;BME280;54866;53.458;14.540;2023-03-20T03:41:52;100599.66;;;6.49;100.00
68077;BME280;54866;53.458;14.540;2023-03-20T03:44:28;100596.64;;;6.57;100.00
68077;BME280;54866;53.458;14.540;2023-03-20T03:47:03;100598.11;;;6.62;100.00
68077;BME280;54866;53.458;14.540;2023-03-20T03:49:37;100598.55;;;6.66;100.00
68077;BME280;54866;53.458;14.540;2023-03-20T03:52:10;100598.28;;;6.70;100.00
68077;BME280;54866;53.458;14.540;2023-03-20T03:54:44;100596.95;;;6.72;100.00
68077;BME280;54866;53.458;14.540;2023-03-20T03:57:19;100596.71;;;6.73;100.00
68077;BME280;54866;53.458;14.540;2023-03-20T03:59:52;100600.24;;;6.72;100.00
68077;BME280;54866;53.458;14.540;2023-03-20T04:02:23;100601.04;;;6.71;100.00
68077;BME280;54866;53.458;14.540;2023-03-20T04:04:54;100601.45;;;6.67;100.00
68077;BME280;54866;53.458;14.540;2023-03-20T04:07:26;100606.45;;;6.63;100.00
68077;BME280;54866;53.458;14.540;2023-03-20T04:09:56;100611.08;;;6.59;100.00
68077;BME280;54866;53.458;14.540;2023-03-20T04:12:37;100611.72;;;6.54;100.00
68077;BME280;54866;53.458;14.540;2023-03-20T04:15:08;100609.33;;;6.48;100.00
68077;BME280;54866;53.458;14.540;2023-03-20T04:17:38;100608.90;;;6.44;100.00
68077;BME280;54866;53.458;14.540;2023-03-20T04:20:10;100607.30;;;6.41;100.00
68077;BME280;54866;53.458;14.540;2023-03-20T04:22:40;100603.39;;;6.39;100.00
68077;BME280;54866;53.458;14.540;2023-03-20T04:25:16;100609.88;;;6.36;100.00
68077;BME280;54866;53.458;14.540;2023-03-20T04:27:46;100611.64;;;6.33;100.00
68077;BME280;54866;53.458;14.540;2023-03-20T04:30:18;100617.05;;;6.33;100.00
68077;BME280;54866;53.458;14.540;2023-03-20T04:32:47;100614.34;;;6.32;100.00
68077;BME280;54866;53.458;14.540;2023-03-20T04:35:17;100615.82;;;6.30;100.00
68077;BME280;54866;53.458;14.540;2023-03-20T04:37:46;100613.10;;;6.29;100.00
68077;BME280;54866;53.458;14.540;2023-03-20T04:40:16;100614.16;;;6.26;100.00
68077;BME280;54866;53.458;14.540;2023-03-20T04:42:46;100615.65;;;6.25;100.00
68077;BME280;54866;53.458;14.540;2023-03-20T04:45:15;100618.89;;;6.23;100.00
68077;BME280;54866;53.458;14.540;2023-03-20T04:47:45;100619.30;;;6.22;100.00
68077;BME280;54866;53.458;14.540;2023-03-20T04:50:15;100618.90;;;6.23;100.00
68077;BME280;54866;53.458;14.540;2023-03-20T04:52:45;100617.50;;;6.23;100.00
68077;BME280;54866;53.458;14.540;2023-03-20T04:55:14;100619.71;;;6.24;100.00
68077;BME280;54866;53.458;14.540;2023-03-20T04:57:44;100620.77;;;6.24;100.00
68077;BME280;54866;53.458;14.540;2023-03-20T05:00:15;100619.90;;;6.24;100.00
68077;BME280;54866;53.458;14.540;2023-03-20T05:02:45;100621.38;;;6.23;100.00
68077;BME280;54866;53.458;14.540;2023-03-20T05:05:15;100619.93;;;6.21;100.00
68077;BME280;54866;53.458;14.540;2023-03-20T05:07:45;100624.44;;;6.18;100.00
68077;BME280;54866;53.458;14.540;2023-03-20T05:10:14;100629.45;;;6.17;100.00
68077;BME280;54866;53.458;14.540;2023-03-20T05:12:44;100633.20;;;6.15;100.00
68077;BME280;54866;53.458;14.540;2023-03-20T05:15:13;100634.91;;;6.13;100.00
68077;BME280;54866;53.458;14.540;2023-03-20T05:17:43;100629.77;;;6.12;100.00
68077;BME280;54866;53.458;14.540;2023-03-20T05:22:43;100635.13;;;6.10;100.00
68077;BME280;54866;53.458;14.540;2023-03-20T05:25:12;100632.88;;;6.09;100.00
68077;BME280;54866;53.458;14.540;2023-03-20T05:27:42;100634.57;;;6.10;100.00
68077;BME280;54866;53.458;14.540;2023-03-20T05:30:14;100631.33;;;6.12;100.00
68077;BME280;54866;53.458;14.540;2023-03-20T05:32:43;100630.33;;;6.14;100.00
68077;BME280;54866;53.458;14.540;2023-03-20T05:35:13;100634.73;;;6.16;100.00
68077;BME280;54866;53.458;14.540;2023-03-20T05:37:43;100634.36;;;6.19;100.00
68077;BME280;54866;53.458;14.540;2023-03-20T05:40:15;100632.94;;;6.22;100.00
68077;BME280;54866;53.458;14.540;2023-03-20T05:42:44;100634.52;;;6.25;100.00
68077;BME280;54866;53.458;14.540;2023-03-20T05:45:14;100633.35;;;6.27;100.00
68077;BME280;54866;53.458;14.540;2023-03-20T05:47:43;100633.16;;;6.30;100.00
68077;BME280;54866;53.458;14.540;2023-03-20T05:50:14;100635.48;;;6.32;100.00
68077;BME280;54866;53.458;14.540;2023-03-20T05:52:46;100632.86;;;6.35;100.00
68077;BME280;54866;53.458;14.540;2023-03-20T05:55:17;100636.41;;;6.37;100.00
68077;BME280;54866;53.458;14.540;2023-03-20T05:57:46;100644.89;;;6.39;100.00
68077;BME280;54866;53.458;14.540;2023-03-20T06:00:18;100650.63;;;6.40;100.00
68077;BME280;54866;53.458;14.540;2023-03-20T06:02:48;100655.28;;;6.41;100.00
68077;BME280;54866;53.458;14.540;2023-03-20T06:05:17;100654.77;;;6.40;100.00
68077;BME280;54866;53.458;14.540;2023-03-20T06:07:47;100655.02;;;6.45;100.00
68077;BME280;54866;53.458;14.540;2023-03-20T06:10:17;100658.44;;;6.49;100.00
68077;BME280;54866;53.458;14.540;2023-03-20T06:12:47;100654.67;;;6.53;100.00
68077;BME280;54866;53.458;14.540;2023-03-20T06:15:17;100658.26;;;6.55;100.00
68077;BME280;54866;53.458;14.540;2023-03-20T06:17:47;100664.00;;;6.55;100.00
68077;BME280;54866;53.458;14.540;2023-03-20T06:20:17;100665.66;;;6.51;100.00
68077;BME280;54866;53.458;14.540;2023-03-20T06:22:47;100670.83;;;6.49;100.00
68077;BME280;54866;53.458;14.540;2023-03-20T06:25:17;100675.22;;;6.47;100.00
68077;BME280;54866;53.458;14.540;2023-03-20T06:27:48;100674.92;;;6.43;100.00
68077;BME280;54866;53.458;14.540;2023-03-20T06:30:18;100687.54;;;6.40;100.00
68077;BME280;54866;53.458;14.540;2023-03-20T06:32:48;100685.61;;;6.34;100.00
68077;BME280;54866;53.458;14.540;2023-03-20T06:35:18;100692.23;;;6.26;100.00
68077;BME280;54866;53.458;14.540;2023-03-20T06:37:48;100699.88;;;6.18;100.00
68077;BME280;54866;53.458;14.540;2023-03-20T06:40:18;100703.86;;;6.13;100.00
68077;BME280;54866;53.458;14.540;2023-03-20T06:42:48;100699.38;;;6.09;100.00
68077;BME280;54866;53.458;14.540;2023-03-20T06:45:18;100697.55;;;6.07;100.00
68077;BME280;54866;53.458;14.540;2023-03-20T06:47:48;100695.69;;;6.06;100.00
68077;BME280;54866;53.458;14.540;2023-03-20T06:50:18;100697.33;;;6.08;100.00
68077;BME280;54866;53.458;14.540;2023-03-20T06:52:48;100695.48;;;6.10;100.00
68077;BME280;54866;53.458;14.540;2023-03-20T06:55:18;100696.58;;;6.15;100.00
68077;BME280;54866;53.458;14.540;2023-03-20T06:57:48;100700.40;;;6.21;100.00
68077;BME280;54866;53.458;14.540;2023-03-20T07:00:19;100695.35;;;6.26;100.00
68077;BME280;54866;53.458;14.540;2023-03-20T07:02:49;100691.85;;;6.32;100.00
68077;BME280;54866;53.458;14.540;2023-03-20T07:05:20;100691.13;;;6.38;100.00
68077;BME280;54866;53.458;14.540;2023-03-20T07:07:50;100685.67;;;6.45;100.00
68077;BME280;54866;53.458;14.540;2023-03-20T07:10:20;100684.17;;;6.52;100.00
68077;BME280;54866;53.458;14.540;2023-03-20T07:12:51;100688.01;;;6.57;100.00
68077;BME280;54866;53.458;14.540;2023-03-20T07:15:21;100689.56;;;6.64;100.00
68077;BME280;54866;53.458;14.540;2023-03-20T07:17:50;100688.30;;;6.70;100.00
68077;BME280;54866;53.458;14.540;2023-03-20T07:20:20;100695.20;;;6.74;100.00
68077;BME280;54866;53.458;14.540;2023-03-20T07:22:50;100697.42;;;6.78;100.00
68077;BME280;54866;53.458;14.540;2023-03-20T07:25:21;100703.44;;;6.83;100.00
68077;BME280;54866;53.458;14.540;2023-03-20T07:27:51;100707.91;;;6.86;100.00
68077;BME280;54866;53.458;14.540;2023-03-20T07:30:20;100711.02;;;6.90;100.00
68077;BME280;54866;53.458;14.540;2023-03-20T07:32:50;100702.84;;;6.92;100.00
68077;BME280;54866;53.458;14.540;2023-03-20T07:35:19;100703.05;;;6.97;100.00
68077;BME280;54866;53.458;14.540;2023-03-20T07:37:49;100704.63;;;7.00;100.00
68077;BME280;54866;53.458;14.540;2023-03-20T07:40:19;100715.11;;;6.98;100.00
68077;BME280;54866;53.458;14.540;2023-03-20T07:42:49;100721.61;;;6.94;100.00
68077;BME280;54866;53.458;14.540;2023-03-20T07:45:19;100726.34;;;6.91;100.00
68077;BME280;54866;53.458;14.540;2023-03-20T07:47:48;100725.27;;;6.86;100.00
68077;BME280;54866;53.458;14.540;2023-03-20T07:50:18;100726.31;;;6.84;100.00
68077;BME280;54866;53.458;14.540;2023-03-20T07:52:49;100727.14;;;6.82;100.00
68077;BME280;54866;53.458;14.540;2023-03-20T07:55:19;100731.77;;;6.80;100.00
68077;BME280;54866;53.458;14.540;2023-03-20T07:57:49;100727.79;;;6.77;100.00
68077;BME280;54866;53.458;14.540;2023-03-20T08:00:20;100726.77;;;6.76;100.00
68077;BME280;54866;53.458;14.540;2023-03-20T08:02:50;100730.10;;;6.76;100.00
68077;BME280;54866;53.458;14.540;2023-03-20T08:05:19;100727.94;;;6.77;100.00
68077;BME280;54866;53.458;14.540;2023-03-20T08:07:49;100724.98;;;6.80;100.00
68077;BME280;54866;53.458;14.540;2023-03-20T08:10:19;100725.84;;;6.83;100.00
68077;BME280;54866;53.458;14.540;2023-03-20T08:12:48;100726.80;;;6.87;100.00
68077;BME280;54866;53.458;14.540;2023-03-20T08:15:18;100720.91;;;6.88;100.00
68077;BME280;54866;53.458;14.540;2023-03-20T08:17:48;100720.71;;;6.92;100.00
68077;BME280;54866;53.458;14.540;2023-03-20T08:20:18;100725.09;;;6.95;100.00
68077;BME280;54866;53.458;14.540;2023-03-20T08:22:48;100729.71;;;6.99;100.00
68077;BME280;54866;53.458;14.540;2023-03-20T08:25:18;100729.90;;;7.05;100.00
68077;BME280;54866;53.458;14.540;2023-03-20T08:27:48;100731.04;;;7.09;100.00
68077;BME280;54866;53.458;14.540;2023-03-20T08:30:18;100723.83;;;7.12;100.00
68077;BME280;54866;53.458;14.540;2023-03-20T08:32:48;100725.98;;;7.17;100.00
68077;BME280;54866;53.458;14.540;2023-03-20T08:35:17;100736.16;;;7.22;100.00
68077;BME280;54866;53.458;14.540;2023-03-20T08:37:47;100735.35;;;7.26;100.00
68077;BME280;54866;53.458;14.540;2023-03-20T08:40:17;100736.30;;;7.31;100.00
68077;BME280;54866;53.458;14.540;2023-03-20T08:42:46;100743.52;;;7.36;100.00
68077;BME280;54866;53.458;14.540;2023-03-20T08:45:16;100741.77;;;7.44;100.00
68077;BME280;54866;53.458;14.540;2023-03-20T08:47:47;100742.11;;;7.52;100.00
68077;BME280;54866;53.458;14.540;2023-03-20T08:50:17;100738.77;;;7.63;100.00
68077;BME280;54866;53.458;14.540;2023-03-20T08:52:47;100740.88;;;7.74;100.00
68077;BME280;54866;53.458;14.540;2023-03-20T08:55:17;100740.86;;;7.85;100.00
68077;BME280;54866;53.458;14.540;2023-03-20T08:57:47;100736.64;;;7.93;100.00
68077;BME280;54866;53.458;14.540;2023-03-20T09:00:18;100738.48;;;8.02;100.00
68077;BME280;54866;53.458;14.540;2023-03-20T09:02:47;100734.02;;;8.19;100.00
68077;BME280;54866;53.458;14.540;2023-03-20T09:05:18;100734.45;;;8.41;100.00
68077;BME280;54866;53.458;14.540;2023-03-20T09:07:47;100731.87;;;8.66;100.00
68077;BME280;54866;53.458;14.540;2023-03-20T09:10:18;100728.23;;;8.92;100.00
68077;BME280;54866;53.458;14.540;2023-03-20T09:12:48;100729.39;;;9.20;100.00
68077;BME280;54866;53.458;14.540;2023-03-20T09:15:18;100727.82;;;9.39;100.00
68077;BME280;54866;53.458;14.540;2023-03-20T09:17:47;100725.77;;;9.58;100.00
68077;BME280;54866;53.458;14.540;2023-03-20T09:20:17;100720.04;;;9.74;100.00
68077;BME280;54866;53.458;14.540;2023-03-20T09:22:47;100722.29;;;9.79;100.00
68077;BME280;54866;53.458;14.540;2023-03-20T09:25:16;100726.48;;;9.72;100.00
68077;BME280;54866;53.458;14.540;2023-03-20T17:18:35;100672.16;;;7.65;99.39
68077;BME280;54866;53.458;14.540;2023-03-20T17:21:05;100673.19;;;7.63;99.64
68077;BME280;54866;53.458;14.540;2023-03-20T17:23:36;100670.05;;;7.63;99.32
68077;BME280;54866;53.458;14.540;2023-03-20T17:26:08;100668.20;;;7.64;99.32
68077;BME280;54866;53.458;14.540;2023-03-20T17:28:39;100673.52;;;7.66;99.37
68077;BME280;54866;53.458;14.540;2023-03-20T17:31:13;100672.31;;;7.68;99.00
68077;BME280;54866;53.458;14.540;2023-03-20T17:33:44;100671.47;;;7.70;98.84
68077;BME280;54866;53.458;14.540;2023-03-20T17:36:16;100675.91;;;7.72;98.79
68077;BME280;54866;53.458;14.540;2023-03-20T17:38:47;100670.23;;;7.73;98.91
68077;BME280;54866;53.458;14.540;2023-03-20T17:41:19;100672.48;;;7.74;98.95
68077;BME280;54866;53.458;14.540;2023-03-20T17:43:50;100669.54;;;7.73;99.01
68077;BME280;54866;53.458;14.540;2023-03-20T17:46:21;100674.48;;;7.73;99.02
68077;BME280;54866;53.458;14.540;2023-03-20T17:48:57;100675.77;;;7.72;99.14
68077;BME280;54866;53.458;14.540;2023-03-20T17:51:27;100679.39;;;7.70;99.40
68077;BME280;54866;53.458;14.540;2023-03-20T17:53:57;100676.33;;;7.69;99.39
68077;BME280;54866;53.458;14.540;2023-03-20T17:56:28;100680.58;;;7.66;99.96
68077;BME280;54866;53.458;14.540;2023-03-20T17:59:00;100673.80;;;7.62;100.00
68077;BME280;54866;53.458;14.540;2023-03-20T18:01:31;100677.29;;;7.60;100.00
68077;BME280;54866;53.458;14.540;2023-03-20T18:04:01;100674.69;;;7.56;100.00
68077;BME280;54866;53.458;14.540;2023-03-20T18:06:31;100676.64;;;7.53;100.00
68077;BME280;54866;53.458;14.540;2023-03-20T18:09:02;100675.63;;;7.50;100.00
68077;BME280;54866;53.458;14.540;2023-03-20T18:11:32;100675.44;;;7.48;100.00
68077;BME280;54866;53.458;14.540;2023-03-20T18:14:01;100674.85;;;7.46;100.00
68077;BME280;54866;53.458;14.540;2023-03-20T18:16:31;100680.29;;;7.46;100.00
68077;BME280;54866;53.458;14.540;2023-03-20T18:19:01;100679.27;;;7.45;100.00
68077;BME280;54866;53.458;14.540;2023-03-20T18:21:31;100681.84;;;7.43;100.00
68077;BME280;54866;53.458;14.540;2023-03-20T18:24:01;100665.84;;;7.31;100.00
68077;BME280;54866;53.458;14.540;2023-03-20T18:26:31;100684.17;;;7.42;100.00
68077;BME280;54866;53.458;14.540;2023-03-20T18:29:01;100685.92;;;7.43;100.00
68077;BME280;54866;53.458;14.540;2023-03-20T18:31:31;100689.28;;;7.42;100.00
68077;BME280;54866;53.458;14.540;2023-03-20T18:34:00;100691.06;;;7.42;100.00
68077;BME280;54866;53.458;14.540;2023-03-20T18:36:30;100691.07;;;7.42;100.00
68077;BME280;54866;53.458;14.540;2023-03-20T18:39:01;100689.73;;;7.41;100.00
68077;BME280;54866;53.458;14.540;2023-03-20T18:41:31;100688.41;;;7.39;100.00
68077;BME280;54866;53.458;14.540;2023-03-20T18:44:02;100687.59;;;7.39;100.00
68077;BME280;54866;53.458;14.540;2023-03-20T18:46:32;100686.98;;;7.37;100.00
68077;BME280;54866;53.458;14.540;2023-03-20T18:49:02;100685.42;;;7.37;100.00
68077;BME280;54866;53.458;14.540;2023-03-20T18:51:32;100686.52;;;7.36;100.00
68077;BME280;54866;53.458;14.540;2023-03-20T18:54:02;100683.73;;;7.36;100.00
68077;BME280;54866;53.458;14.540;2023-03-20T18:56:32;100688.45;;;7.36;100.00
68077;BME280;54866;53.458;14.540;2023-03-20T18:59:05;100688.98;;;7.36;100.00
68077;BME280;54866;53.458;14.540;2023-03-20T19:01:35;100691.81;;;7.36;100.00
68077;BME280;54866;53.458;14.540;2023-03-20T19:04:05;100689.69;;;7.36;100.00
68077;BME280;54866;53.458;14.540;2023-03-20T19:06:35;100696.55;;;7.36;100.00
68077;BME280;54866;53.458;14.540;2023-03-20T19:09:05;100701.52;;;7.35;100.00
68077;BME280;54866;53.458;14.540;2023-03-20T19:11:38;100699.13;;;7.34;100.00
68077;BME280;54866;53.458;14.540;2023-03-20T19:14:09;100698.58;;;7.32;100.00
68077;BME280;54866;53.458;14.540;2023-03-20T19:16:38;100700.18;;;7.28;100.00
68077;BME280;54866;53.458;14.540;2023-03-20T19:19:09;100706.28;;;7.23;100.00
68077;BME280;54866;53.458;14.540;2023-03-20T19:21:40;100706.79;;;7.18;100.00
68077;BME280;54866;53.458;14.540;2023-03-20T19:24:11;100704.73;;;7.12;100.00
68077;BME280;54866;53.458;14.540;2023-03-20T19:26:40;100693.98;;;7.02;100.00
68077;BME280;54866;53.458;14.540;2023-03-20T19:29:12;100694.20;;;7.02;100.00
68077;BME280;54866;53.458;14.540;2023-03-20T19:31:41;100698.05;;;6.99;100.00
68077;BME280;54866;53.458;14.540;2023-03-20T19:34:11;100698.38;;;6.96;100.00
68077;BME280;54866;53.458;14.540;2023-03-20T19:36:42;100697.95;;;6.94;100.00
68077;BME280;54866;53.458;14.540;2023-03-20T19:39:16;100699.22;;;6.94;100.00
68077;BME280;54866;53.458;14.540;2023-03-20T19:41:47;100704.30;;;6.93;100.00
68077;BME280;54866;53.458;14.540;2023-03-20T19:44:18;100702.08;;;6.93;100.00
68077;BME280;54866;53.458;14.540;2023-03-20T19:46:47;100702.49;;;6.92;100.00
68077;BME280;54866;53.458;14.540;2023-03-20T19:49:19;100707.25;;;6.91;100.00
68077;BME280;54866;53.458;14.540;2023-03-20T19:51:50;100703.02;;;6.92;100.00
68077;BME280;54866;53.458;14.540;2023-03-20T19:54:22;100704.11;;;6.91;100.00
68077;BME280;54866;53.458;14.540;2023-03-20T19:56:53;100704.86;;;6.90;100.00
68077;BME280;54866;53.458;14.540;2023-03-20T19:59:23;100704.92;;;6.89;100.00
68077;BME280;54866;53.458;14.540;2023-03-20T20:01:53;100704.03;;;6.84;100.00
68077;BME280;54866;53.458;14.540;2023-03-20T20:04:26;100712.69;;;6.88;100.00
68077;BME280;54866;53.458;14.540;2023-03-20T20:06:56;100701.26;;;6.84;100.00
68077;BME280;54866;53.458;14.540;2023-03-20T20:09:26;100708.80;;;6.86;100.00
68077;BME280;54866;53.458;14.540;2023-03-20T20:11:57;100705.36;;;6.85;100.00
68077;BME280;54866;53.458;14.540;2023-03-20T20:14:27;100702.46;;;6.84;100.00
68077;BME280;54866;53.458;14.540;2023-03-20T20:16:56;100688.95;;;6.73;100.00
68077;BME280;54866;53.458;14.540;2023-03-20T20:19:26;100706.27;;;6.82;100.00
68077;BME280;54866;53.458;14.540;2023-03-20T20:21:57;100703.77;;;6.80;100.00
68077;BME280;54866;53.458;14.540;2023-03-20T20:24:27;100704.30;;;6.80;100.00
68077;BME280;54866;53.458;14.540;2023-03-20T20:26:57;100703.01;;;6.79;100.00
68077;BME280;54866;53.458;14.540;2023-03-20T20:29:27;100686.14;;;6.68;100.00
68077;BME280;54866;53.458;14.540;2023-03-20T20:31:57;100707.27;;;6.77;100.00
68077;BME280;54866;53.458;14.540;2023-03-20T20:34:28;100708.53;;;6.77;100.00
68077;BME280;54866;53.458;14.540;2023-03-20T20:36:58;100709.13;;;6.75;100.00
68077;BME280;54866;53.458;14.540;2023-03-20T20:39:28;100707.55;;;6.75;100.00
68077;BME280;54866;53.458;14.540;2023-03-20T20:41:58;100709.13;;;6.75;100.00
68077;BME280;54866;53.458;14.540;2023-03-20T20:44:29;100705.87;;;6.74;100.00
68077;BME280;54866;53.458;14.540;2023-03-20T20:46:59;100709.36;;;6.75;100.00
68077;BME280;54866;53.458;14.540;2023-03-20T20:49:31;100707.05;;;6.75;100.00
68077;BME280;54866;53.458;14.540;2023-03-20T20:52:01;100711.79;;;6.75;100.00
68077;BME280;54866;53.458;14.540;2023-03-20T20:54:31;100713.38;;;6.75;100.00
68077;BME280;54866;53.458;14.540;2023-03-20T20:57:02;100715.30;;;6.75;100.00
68077;BME280;54866;53.458;14.540;2023-03-20T20:59:34;100716.88;;;6.75;100.00
68077;BME280;54866;53.458;14.540;2023-03-20T21:02:06;100718.16;;;6.74;100.00